Time;durP1;ratioP1;P1;durP2;ratioP2;P2;SDS_P1;SDS_P2;PMS_P1;PMS_P2;Temp;Humidity;BMP_temperature;BMP_pressure;BME280_temperature;BME280_humidity;BME280_pressure;Samples;Min_cycle;Max_cycle;Signal;HPM_P1;HPM_P2
2023/10/01 00:03:52;;;;;;;13.77;8.98;;;11.20;99.90;;;12.01;96.23;98940.22;10332128;28;20231;-66
2023/10/01 00:08:57;;;;;;;13.70;9.38;;;11.30;99.90;;;12.00;96.68;98943.56;10327025;28;20239;-67
2023/10/01 00:14:06;;;;;;;12.60;9.68;;;11.20;99.90;;;11.89;96.35;98930.00;10328551;28;20665;-66
2023/10/01 00:19:27;;;;;;;12.77;9.10;;;11.20;99.90;;;11.89;96.81;98934.25;10337036;28;20293;-68
2023/10/01 00:24:31;;;;;;;13.20;9.18;;;11.20;99.90;;;11.88;97.07;98932.47;10330578;28;20227;-65
2023/10/01 00:29:36;;;;;;;13.43;9.25;;;11.10;99.90;;;11.84;96.50;98940.69;10325440;28;20231;-65
2023/10/01 00:34:39;;;;;;;11.32;8.88;;;11.10;99.90;;;11.77;96.44;98929.13;10326218;28;20230;-65
2023/10/01 00:39:42;;;;;;;14.73;9.45;;;11.00;99.90;;;11.64;97.17;98914.56;10323382;28;20622;-66
2023/10/01 00:44:47;;;;;;;12.63;9.40;;;10.90;99.90;;;11.68;96.45;98908.91;10326000;28;20231;-66
2023/10/01 00:49:52;;;;;;;11.80;9.13;;;10.90;99.90;;;11.54;97.58;98909.59;10323642;28;20234;-70
2023/10/01 00:54:55;;;;;;;14.07;9.45;;;10.80;99.90;;;11.46;97.13;98916.72;10320934;28;20250;-66
2023/10/01 01:00:00;;;;;;;12.80;9.30;;;10.80;99.90;;;11.23;99.40;98922.78;10330258;28;20238;-66
2023/10/01 01:05:19;;;;;;;12.85;9.00;;;10.60;99.90;;;11.39;98.55;98918.75;10330815;28;20246;-66
2023/10/01 01:10:26;;;;;;;12.48;9.95;;;10.70;99.90;;;11.47;99.01;98918.53;10329425;28;20230;-66
2023/10/01 01:15:34;;;;;;;11.98;9.60;;;10.80;99.90;;;11.43;98.66;98913.97;10328958;28;20242;-66
2023/10/01 01:20:43;;;;;;;12.25;8.20;;;10.70;99.90;;;11.47;98.08;98917.63;10330092;28;20245;-67
2023/10/01 01:25:49;;;;;;;17.40;10.13;;;10.70;99.90;;;11.35;97.97;98929.56;10318346;28;20266;-66
2023/10/01 01:30:52;;;;;;;14.10;9.68;;;10.60;99.90;;;11.25;97.88;98925.47;10330990;28;20223;-65
2023/10/01 01:35:57;;;;;;;14.05;9.50;;;10.60;99.90;;;11.24;98.77;98924.56;10328183;28;20234;-65
2023/10/01 01:41:05;;;;;;;12.98;9.45;;;10.60;99.90;;;11.20;98.30;98932.81;10320460;28;20223;-65
2023/10/01 01:46:11;;;;;;;13.80;9.38;;;10.50;99.90;;;11.30;98.11;98929.22;10328963;28;20234;-66
2023/10/01 01:51:17;;;;;;;13.65;9.20;;;10.50;99.90;;;11.20;97.26;98922.56;10324067;28;20232;-66
2023/10/01 01:56:21;;;;;;;11.30;8.60;;;10.50;99.90;;;11.18;97.55;98919.00;10326118;28;20236;-67
2023/10/01 02:01:25;;;;;;;13.10;9.07;;;10.50;99.90;;;11.19;98.90;98919.91;10321977;28;21307;-66
2023/10/01 02:06:30;;;;;;;15.25;10.00;;;10.50;99.90;;;11.18;98.60;98919.00;10316815;28;20758;-67
2023/10/01 02:11:35;;;;;;;11.35;8.95;;;10.50;99.90;;;11.14;98.13;98914.44;10325054;28;20234;-66
2023/10/01 02:16:40;;;;;;;12.70;9.07;;;10.40;99.90;;;11.15;97.69;98905.97;10325296;28;20230;-67
2023/10/01 02:21:44;;;;;;;11.55;9.40;;;10.30;99.90;;;11.05;96.74;98901.00;10321614;28;20301;-67
2023/10/01 02:26:53;;;;;;;11.60;8.95;;;10.30;99.90;;;10.93;97.17;98889.88;10319707;28;20219;-66
2023/10/01 02:31:56;;;;;;;13.00;9.50;;;10.20;99.90;;;11.04;97.07;98886.41;10324781;28;20234;-66
2023/10/01 02:37:03;;;;;;;13.55;9.02;;;10.20;99.90;;;10.95;96.41;98881.53;10327456;28;20227;-69
2023/10/01 02:42:21;;;;;;;12.13;8.80;;;10.20;99.90;;;10.89;96.95;98886.22;10338974;28;20254;-67
2023/10/01 02:47:26;;;;;;;11.27;9.05;;;10.10;99.90;;;10.87;98.50;98885.19;10328352;28;20239;-66
2023/10/01 02:52:36;;;;;;;12.32;8.80;;;10.20;99.90;;;10.88;97.17;98896.34;10335773;28;20230;-65
2023/10/01 02:57:41;;;;;;;13.50;9.35;;;10.10;99.90;;;10.79;96.32;98896.56;10335971;28;21024;-66
2023/10/01 03:02:50;;;;;;;13.82;8.57;;;9.90;99.90;;;10.57;96.31;98899.22;10337668;28;20242;-66
2023/10/01 03:07:54;;;;;;;13.15;9.18;;;9.80;99.90;;;10.47;96.59;98894.19;10337510;28;20241;-65
2023/10/01 03:13:01;;;;;;;11.90;8.90;;;9.70;99.90;;;10.35;98.37;98887.38;10336299;28;20298;-65
2023/10/01 03:18:08;;;;;;;13.53;9.57;;;9.60;99.90;;;10.06;99.64;98886.84;10332392;28;20270;-66
2023/10/01 03:23:24;;;;;;;11.87;9.53;;;9.40;99.90;;;10.05;99.77;98890.19;10332761;28;20338;-66
2023/10/01 03:29:13;;;;;;;12.40;8.90;;;9.40;99.90;;;10.10;98.74;98883.72;10330267;28;20588;-66
2023/10/01 03:33:55;;;;;;;12.73;9.10;;;9.40;99.90;;;10.15;99.98;98877.31;10331736;28;20622;-65
2023/10/01 03:39:07;;;;;;;11.47;8.77;;;9.50;99.90;;;10.19;99.02;98866.56;10334422;28;20231;-65
2023/10/01 03:44:12;;;;;;;14.03;9.97;;;9.50;99.90;;;10.04;99.94;98871.38;10331610;28;20718;-65
2023/10/01 03:59:57;;;;;;;13.50;9.30;;;9.40;99.90;;;10.15;99.84;98877.31;10334620;28;20226;-66
2023/10/01 04:05:04;;;;;;;10.93;9.10;;;9.50;99.90;;;10.21;99.50;98871.78;10330793;28;20227;-66
2023/10/01 04:10:13;;;;;;;13.97;9.63;;;9.50;99.90;;;10.22;98.15;98871.91;10330857;28;20223;-67
2023/10/01 04:15:27;;;;;;;12.37;8.60;;;9.50;99.90;;;10.21;98.02;98876.88;10326516;28;20230;-66
2023/10/01 04:20:33;;;;;;;11.60;9.00;;;9.50;99.90;;;10.16;97.14;98868.88;10326992;28;20262;-67
2023/10/01 04:25:38;;;;;;;11.77;8.17;;;9.40;99.90;;;10.06;97.38;98872.41;10332838;28;20646;-67
2023/10/01 04:30:44;;;;;;;12.37;9.10;;;9.30;99.90;;;10.02;96.08;98869.53;10326729;28;20681;-66
2023/10/01 04:35:55;;;;;;;11.90;8.43;;;9.20;99.90;;;9.98;97.43;98862.38;10334549;28;20300;-65
2023/10/01 04:40:58;;;;;;;14.37;9.23;;;9.20;99.90;;;9.98;97.66;98872.59;10334408;28;20226;-66
2023/10/01 04:46:04;;;;;;;11.00;8.80;;;9.20;99.90;;;10.01;97.69;98881.38;10330118;28;20254;-66
2023/10/01 04:51:07;;;;;;;13.00;8.07;;;9.30;99.90;;;9.97;95.54;98881.03;10329716;28;20223;-67
2023/10/01 04:56:11;;;;;;;11.93;9.97;;;9.10;99.90;;;9.83;96.10;98878.31;10328907;28;20707;-66
2023/10/01 05:01:17;;;;;;;12.93;8.27;;;9.00;99.90;;;9.67;95.44;98877.91;10327687;28;20227;-66
2023/10/01 05:06:22;;;;;;;11.20;7.77;;;8.90;99.90;;;9.66;96.22;98864.25;10326673;28;20227;-66
2023/10/01 05:11:31;;;;;;;11.63;8.63;;;8.90;99.90;;;9.62;97.48;98859.72;10329143;28;20241;-65
2023/10/01 05:16:38;;;;;;;10.83;8.03;;;8.80;99.90;;;9.67;97.51;98857.50;10326977;28;20246;-69
2023/10/01 05:21:47;;;;;;;11.50;8.23;;;8.90;99.90;;;9.62;97.04;98863.94;10323999;28;20322;-69
2023/10/01 05:26:52;;;;;;;10.77;8.77;;;8.90;99.90;;;9.68;97.12;98885.69;10322331;28;20252;-66
2023/10/01 05:31:57;;;;;;;14.47;9.70;;;8.90;99.90;;;9.65;97.26;98893.13;10326794;28;20235;-66
2023/10/01 05:37:09;;;;;;;10.90;8.10;;;8.90;99.90;;;9.75;96.15;98894.72;10317453;28;20454;-66
2023/10/01 05:42:14;;;;;;;11.77;9.40;;;9.00;99.90;;;9.74;95.87;98898.06;10318848;28;20713;-68
2023/10/01 05:47:20;;;;;;;11.80;8.37;;;8.90;99.90;;;9.62;95.51;98902.22;10317740;28;20242;-67
2023/10/01 05:52:23;;;;;;;10.97;8.47;;;8.80;99.90;;;9.59;96.20;98905.41;10317165;28;20245;-67
2023/10/01 05:57:26;;;;;;;12.37;8.23;;;8.80;99.90;;;9.78;95.50;98902.59;10315016;28;20568;-66
2023/10/01 06:02:42;;;;;;;11.90;8.77;;;9.00;99.90;;;9.97;95.54;98921.91;10315687;28;20231;-66
2023/10/01 06:07:45;;;;;;;11.17;8.00;;;9.30;99.90;;;10.35;96.11;98930.81;10323455;28;20231;-66
2023/10/01 06:12:51;;;;;;;11.13;8.53;;;9.60;99.90;;;10.88;92.90;98929.59;10331075;28;20230;-67
2023/10/01 06:18:00;;;;;;;10.75;8.40;;;10.00;99.90;;;11.45;89.05;98924.31;10327755;28;20237;-67
2023/10/01 06:23:07;;;;;;;10.30;7.88;;;10.50;99.90;;;11.73;86.11;98927.13;10320973;28;20289;-67
2023/10/01 06:28:14;;;;;;;13.68;8.60;;;10.70;99.90;;;12.10;85.48;98934.81;10326435;28;20226;-66
2023/10/01 06:33:29;;;;;;;10.43;7.78;;;11.10;99.90;;;12.85;81.97;98927.94;10322695;28;20601;-67
2023/10/01 06:38:32;;;;;;;12.48;8.20;;;11.50;99.90;;;13.07;82.09;98935.31;10319805;28;20259;-66
2023/10/01 06:43:44;;;;;;;11.98;8.57;;;11.70;99.90;;;13.28;79.15;98934.97;10324327;28;20242;-67
2023/10/01 06:48:49;;;;;;;11.85;8.90;;;11.90;99.90;;;13.27;79.30;98928.03;10332272;28;20222;-66
2023/10/01 06:53:59;;;;;;;12.90;9.07;;;12.00;99.90;;;13.12;80.81;98927.94;10330368;28;20293;-67
2023/10/01 06:59:12;;;;;;;14.02;9.40;;;11.90;99.90;;;12.93;82.44;98930.97;10327367;28;20691;-69
2023/10/01 07:04:19;;;;;;;12.73;9.55;;;12.00;99.90;;;13.48;81.75;98938.81;10324259;28;20662;-67
2023/10/01 07:09:27;;;;;;;14.55;8.98;;;12.60;99.90;;;13.75;80.90;98944.78;10331934;28;20246;-67
2023/10/01 07:14:38;;;;;;;12.25;9.18;;;12.90;99.90;;;14.10;79.35;98949.50;10324080;28;20227;-66
2023/10/01 07:19:45;;;;;;;12.50;8.90;;;13.30;99.90;;;14.36;80.67;98947.59;10330894;28;20241;-66
2023/10/01 07:24:48;;;;;;;11.95;9.20;;;13.80;99.90;;;15.04;76.14;98937.91;10320826;28;20810;-66
2023/10/01 07:29:54;;;;;;;12.05;9.25;;;14.30;99.90;;;15.30;76.56;98944.50;10325596;28;20602;-66
2023/10/01 07:35:06;;;;;;;10.10;8.10;;;14.50;99.90;;;15.47;75.97;98949.72;10326131;28;20231;-67
2023/10/01 07:40:13;;;;;;;10.43;8.30;;;14.70;99.90;;;16.03;74.19;98944.22;10324516;28;20745;-67
2023/10/01 07:45:17;;;;;;;12.73;8.90;;;15.30;99.90;;;16.58;71.40;98941.91;10321494;28;20286;-67
2023/10/01 07:50:24;;;;;;;12.02;8.45;;;15.90;99.90;;;16.86;70.39;98943.34;10318285;28;20227;-66
2023/10/01 07:55:30;;;;;;;13.43;9.18;;;16.20;99.90;;;17.15;69.17;98941.31;10321327;28;20231;-66
2023/10/01 08:00:34;;;;;;;13.02;9.50;;;16.30;99.90;;;17.43;68.55;98939.25;10322152;28;20237;-66
2023/10/01 08:05:40;;;;;;;12.48;9.88;;;16.70;99.90;;;17.75;67.96;98945.03;10324805;28;20245;-66
2023/10/01 08:10:44;;;;;;;11.68;8.95;;;17.10;99.90;;;18.22;66.94;98951.50;10315225;28;20219;-66
2023/10/01 08:15:57;;;;;;;12.02;8.90;;;17.60;99.90;;;18.75;63.95;98940.03;10319674;28;20592;-66
2023/10/01 08:21:15;;;;;;;12.13;9.02;;;18.10;99.90;;;19.05;63.44;98953.34;10314835;28;20238;-66
2023/10/01 08:32:07;;;;;;;12.65;8.80;;;18.60;99.90;;;19.20;63.36;98953.13;10304284;28;20230;-66
2023/10/01 08:37:08;;;;;;;10.93;8.75;;;18.40;99.90;;;19.47;62.91;98947.25;10304944;28;20238;-66
2023/10/01 08:42:12;;;;;;;11.27;8.85;;;18.80;99.90;;;19.78;62.51;98941.59;10304418;28;20646;-66
2023/10/01 08:47:35;;;;;;;11.73;8.55;;;19.20;99.90;;;19.77;63.34;98945.91;10300566;28;20707;-66
2023/10/01 08:52:52;;;;;;;12.23;9.07;;;19.20;99.90;;;20.38;60.28;98946.38;10299438;28;20227;-66
2023/10/01 08:57:56;;;;;;;11.50;8.18;;;19.70;99.90;;;20.64;59.08;98944.72;10303885;28;20231;-66
2023/10/01 09:03:10;;;;;;;12.77;8.48;;;20.20;99.90;;;20.99;58.35;98934.66;10311029;28;20238;-66
2023/10/01 09:08:29;;;;;;;10.15;7.75;;;20.50;99.90;;;21.20;57.47;98940.53;10307092;28;20733;-66
2023/10/01 09:13:32;;;;;;;11.98;8.77;;;20.70;99.90;;;21.51;56.36;98937.22;10309170;28;20676;-66
2023/10/01 09:18:37;;;;;;;12.48;8.43;;;20.90;99.90;;;21.55;56.81;98930.41;10309810;28;20289;-66
2023/10/01 09:24:12;;;;;;;12.82;8.23;;;20.90;99.90;;;21.73;55.92;98919.66;10314747;28;20231;-66
2023/10/01 09:29:25;;;;;;;12.68;8.05;;;21.20;99.90;;;21.94;54.54;98916.81;10313637;28;20277;-66
2023/10/01 09:34:33;;;;;;;12.07;7.95;;;21.30;99.20;;;22.14;54.64;98913.03;10313936;28;20227;-66
2023/10/01 09:39:41;;;;;;;11.43;8.05;;;21.60;99.20;;;22.21;53.15;98911.56;10312791;28;20259;-66
2023/10/01 09:44:46;;;;;;;11.20;7.82;;;21.60;98.10;;;22.40;54.05;98911.19;10314663;28;20358;-66
2023/10/01 09:49:53;;;;;;;10.75;7.35;;;21.80;98.70;;;22.56;51.28;98916.81;10308722;28;20718;-66
2023/10/01 09:55:05;;;;;;;11.38;7.50;;;21.80;96.90;;;22.49;51.09;98916.66;10311157;28;20237;-66
2023/10/01 10:00:18;;;;;;;9.80;7.22;;;21.80;96.40;;;22.62;52.14;98907.44;10311472;28;20241;-66
2023/10/01 10:05:28;;;;;;;11.65;8.15;;;21.90;97.60;;;22.34;53.09;98902.34;10311597;28;20670;-66
2023/10/01 10:10:35;;;;;;;11.30;7.85;;;21.70;97.70;;;22.57;51.58;98898.59;10307053;28;20237;-66
2023/10/01 10:15:57;;;;;;;10.50;6.82;;;22.10;96.20;;;22.89;48.89;98894.25;10308199;28;20242;-67
2023/10/01 10:21:04;;;;;;;9.38;7.25;;;22.30;94.60;;;22.88;49.29;98886.38;10307092;28;20735;-66
2023/10/01 10:26:56;;;;;;;10.98;7.53;;;22.20;95.00;;;22.98;48.32;98877.06;10309482;28;21811;-67
2023/10/01 10:32:09;;;;;;;12.30;8.20;;;22.40;94.10;;;23.02;49.05;98871.09;10303219;28;20230;-66
2023/10/01 10:37:45;;;;;;;12.95;8.27;;;22.50;94.30;;;22.98;49.21;98861.41;10308125;28;20349;-66
2023/10/01 10:43:18;;;;;;;12.27;8.00;;;22.40;94.50;;;23.09;49.58;98866.06;10308493;28;20435;-66
2023/10/01 10:48:27;;;;;;;11.32;7.57;;;22.50;94.60;;;22.98;50.01;98872.75;10304421;28;20239;-67
2023/10/01 10:53:42;;;;;;;11.43;7.68;;;22.40;95.10;;;23.09;49.48;98866.06;10312389;28;20790;-66
2023/10/01 10:58:53;;;;;;;12.88;9.88;;;22.50;94.60;;;22.89;50.33;98862.94;10315743;28;20354;-66
2023/10/01 11:03:58;;;;;;;11.48;8.15;;;22.30;95.00;;;23.17;50.54;98845.34;10313879;28;20366;-66
2023/10/01 11:09:03;;;;;;;12.25;7.93;;;22.60;95.30;;;23.22;50.19;98848.94;10316231;28;20322;-66
2023/10/01 11:14:16;;;;;;;10.68;8.18;;;22.60;95.10;;;23.19;50.13;98856.72;10316288;28;20619;-67
2023/10/01 11:19:25;;;;;;;10.40;7.72;;;22.60;94.90;;;23.29;49.71;98845.66;10310828;28;20246;-66
2023/10/01 11:24:32;;;;;;;10.57;7.95;;;22.70;94.80;;;23.20;50.11;98847.16;10306998;28;20230;-66
2023/10/01 11:29:38;;;;;;;13.25;8.35;;;22.50;95.10;;;23.44;49.76;98833.78;10312989;28;20226;-66
2023/10/01 11:34:45;;;;;;;13.60;8.93;;;22.80;95.00;;;23.58;48.75;98832.34;10309957;28;20235;-67
2023/10/01 11:39:52;;;;;;;11.98;8.02;;;23.00;94.20;;;23.51;48.79;98831.31;10311482;28;20223;-66
2023/10/01 11:44:57;;;;;;;13.25;8.82;;;22.80;94.20;;;23.35;49.36;98819.69;10304710;28;20259;-67
2023/10/01 11:50:07;;;;;;;12.00;8.45;;;22.60;94.50;;;23.68;49.32;98813.41;10309327;28;20587;-66
2023/10/01 11:55:19;;;;;;;13.25;9.00;;;22.90;94.60;;;23.42;49.17;98809.38;10309334;28;20718;-66
2023/10/01 12:00:52;;;;;;;13.82;8.63;;;22.70;94.20;;;23.49;48.28;98806.91;10305428;28;20234;-66
2023/10/01 12:05:57;;;;;;;12.57;8.52;;;22.70;93.90;;;23.60;48.39;98805.41;10310079;28;20235;-66
2023/10/01 12:11:26;;;;;;;12.38;8.70;;;22.80;93.80;;;23.33;47.60;98800.50;10307937;28;20227;-66
2023/10/01 12:16:29;;;;;;;11.80;8.75;;;22.60;93.00;;;23.56;47.15;98787.06;10306942;28;21149;-66
2023/10/01 12:21:33;;;;;;;12.02;8.23;;;22.80;93.10;;;23.44;46.73;98776.38;10310074;28;20231;-66
2023/10/01 12:26:38;;;;;;;11.68;8.35;;;22.70;92.40;;;23.49;46.65;98777.31;10308798;28;21711;-66
2023/10/01 12:31:44;;;;;;;13.90;8.88;;;22.70;92.40;;;23.71;46.55;98763.88;10308915;28;20243;-66
2023/10/01 12:36:47;;;;;;;12.30;8.18;;;23.00;92.40;;;23.92;45.61;98760.81;10303042;28;20226;-66
2023/10/01 12:41:57;;;;;;;11.40;8.02;;;23.10;91.70;;;23.98;45.11;98755.72;10303117;28;20722;-66
2023/10/01 12:47:06;;;;;;;12.43;7.93;;;23.30;91.10;;;23.82;45.42;98749.31;10305721;28;20351;-66
2023/10/01 12:52:14;;;;;;;12.73;8.25;;;23.10;91.30;;;23.61;44.86;98743.66;10307822;28;20318;-67
2023/10/01 12:57:22;;;;;;;10.93;7.65;;;22.80;91.00;;;23.59;45.27;98741.00;10311199;28;20223;-66
2023/10/01 13:02:42;;;;;;;10.10;7.90;;;22.90;91.30;;;23.69;44.72;98731.59;10313663;28;20235;-67
2023/10/01 13:07:48;;;;;;;12.48;7.82;;;23.00;90.50;;;23.79;44.51;98727.50;10304419;28;20603;-66
2023/10/01 13:12:55;;;;;;;10.90;7.97;;;23.10;90.60;;;24.19;43.36;98717.75;10302499;28;20230;-66
2023/10/01 13:18:04;;;;;;;10.88;8.05;;;23.30;89.70;;;23.86;44.45;98718.91;10305492;28;20282;-66
2023/10/01 13:23:07;;;;;;;11.68;7.95;;;23.20;90.40;;;23.83;43.88;98716.22;10306337;28;20710;-66
2023/10/01 13:28:17;;;;;;;10.55;7.13;;;23.10;90.30;;;23.82;43.18;98720.59;10306311;28;20737;-67
2023/10/01 13:33:23;;;;;;;10.40;7.07;;;23.00;88.90;;;23.80;41.95;98709.22;10308263;28;20317;-67
2023/10/01 13:38:37;;;;;;;9.38;7.03;;;23.10;86.60;;;23.78;41.28;98705.72;10305052;28;20242;-67
2023/10/01 14:10:38;;;;;;;10.80;7.22;;;23.30;84.10;;;24.23;38.84;98681.22;10283206;28;20230;-70
2023/10/01 14:15:41;;;;;;;10.73;7.00;;;23.30;82.20;;;24.13;39.35;98679.34;10288263;28;20235;-70
2023/10/01 14:20:46;;;;;;;10.00;6.80;;;23.30;82.50;;;24.16;39.31;98683.72;10286372;28;20222;-70
2023/10/01 14:25:59;;;;;;;10.35;6.53;;;23.30;82.40;;;24.11;39.01;98673.19;10305859;28;20250;-69
2023/10/01 14:31:05;;;;;;;9.95;6.85;;;23.40;81.40;;;24.24;38.65;98664.72;10313554;28;20231;-69
2023/10/01 14:36:14;;;;;;;9.73;7.10;;;23.40;81.50;;;24.43;38.70;98660.66;10309446;28;20234;-70
2023/10/01 14:41:17;;;;;;;9.52;6.80;;;23.60;81.50;;;24.36;38.32;98658.78;10301944;28;20239;-69
2023/10/01 14:46:22;;;;;;;9.52;7.22;;;23.50;80.20;;;24.40;39.18;98657.97;10295819;28;20253;-69
2023/10/01 14:51:26;;;;;;;9.38;6.97;;;23.50;81.90;;;24.19;39.30;98649.81;10297916;28;20226;-70
2023/10/01 14:56:32;;;;;;;10.50;6.88;;;23.40;81.50;;;24.04;40.13;98647.84;10308839;28;20223;-70
2023/10/01 15:01:37;;;;;;;8.88;6.40;;;23.30;82.70;;;23.99;40.46;98641.66;10314467;28;20284;-70
2023/10/01 15:06:43;;;;;;;9.13;6.65;;;23.10;84.00;;;23.91;40.38;98638.03;10311753;28;20262;-70
2023/10/01 15:11:48;;;;;;;9.90;6.47;;;23.10;84.40;;;23.85;41.43;98638.81;10312004;28;20223;-70
2023/10/01 15:16:53;;;;;;;10.07;7.18;;;23.00;84.30;;;23.73;41.82;98639.47;10310362;28;21323;-69
2023/10/01 15:22:16;;;;;;;9.82;7.10;;;22.90;86.10;;;23.70;41.97;98633.31;10315655;28;20597;-69
2023/10/01 15:27:24;;;;;;;9.68;6.82;;;22.80;84.90;;;23.64;42.73;98628.84;10313928;28;20707;-68
2023/10/01 15:32:29;;;;;;;8.93;6.68;;;22.70;87.10;;;23.49;42.43;98633.78;10317382;28;20281;-69
2023/10/01 15:37:35;;;;;;;9.73;6.78;;;22.50;85.90;;;23.36;43.27;98632.69;10317300;28;20235;-69
2023/10/01 15:42:38;;;;;;;11.05;7.65;;;22.40;88.00;;;23.18;43.97;98628.00;10315451;28;20231;-68
2023/10/01 15:47:43;;;;;;;9.57;6.70;;;22.20;89.40;;;22.97;45.31;98627.56;10314698;28;20785;-70
2023/10/01 15:52:50;;;;;;;11.20;7.15;;;22.00;90.90;;;22.74;47.52;98624.47;10314218;28;20223;-70
2023/10/01 15:58:01;;;;;;;10.15;7.20;;;21.70;92.50;;;22.48;49.63;98623.03;10311780;28;20239;-70
2023/10/01 16:03:07;;;;;;;8.65;6.50;;;21.50;94.10;;;22.27;51.14;98619.97;10316818;28;22441;-70
2023/10/01 16:08:20;;;;;;;9.65;6.93;;;21.30;95.30;;;22.05;52.97;98631.56;10311306;28;20231;-70
2023/10/01 16:13:27;;;;;;;9.20;7.10;;;21.00;96.90;;;21.85;54.68;98632.81;10308501;28;20381;-70
2023/10/01 16:18:33;;;;;;;10.05;7.00;;;20.80;98.30;;;21.56;56.07;98633.81;10309372;28;20234;-70
2023/10/01 16:23:40;;;;;;;10.98;7.65;;;20.50;99.00;;;21.35;56.22;98636.72;10310488;28;20706;-70
2023/10/01 16:28:45;;;;;;;9.80;7.10;;;20.30;98.50;;;21.17;56.21;98631.00;10308747;28;20224;-70
2023/10/01 16:33:59;;;;;;;10.02;7.07;;;20.20;99.20;;;20.98;56.50;98637.44;10309539;28;20230;-70
2023/10/01 16:39:12;;;;;;;10.30;7.32;;;20.00;99.20;;;20.85;58.01;98643.09;10305901;28;20227;-70
2023/10/01 16:44:15;;;;;;;11.82;7.45;;;19.80;99.90;;;20.56;59.81;98639.66;10307643;28;20239;-70
2023/10/01 16:49:18;;;;;;;10.00;6.97;;;19.50;99.90;;;20.34;61.33;98646.72;10305750;28;20223;-70
2023/10/01 16:54:27;;;;;;;9.32;6.43;;;19.40;99.90;;;20.20;62.12;98646.31;10305698;28;20230;-70
2023/10/01 16:59:31;;;;;;;12.15;7.85;;;19.20;99.90;;;20.01;62.95;98652.63;10305882;28;20711;-70
2023/10/01 17:04:38;;;;;;;11.77;7.55;;;19.00;99.90;;;19.86;63.75;98648.63;10307421;28;20230;-70
2023/10/01 17:09:50;;;;;;;12.07;7.78;;;18.90;99.90;;;19.57;65.88;98658.88;10302925;28;20223;-70
2023/10/01 17:14:54;;;;;;;11.98;8.65;;;18.60;99.90;;;19.25;67.85;98657.75;10301674;28;20231;-70
2023/10/01 17:20:13;;;;;;;10.65;7.68;;;18.20;99.90;;;19.03;68.93;98656.09;10302229;28;20227;-70
2023/10/01 17:25:26;;;;;;;10.25;7.10;;;18.00;99.90;;;18.79;69.75;98654.38;10301339;28;20222;-70
2023/10/01 17:30:30;;;;;;;9.68;6.63;;;17.80;99.90;;;18.67;70.02;98661.66;10310579;28;20230;-70
2023/10/01 17:35:38;;;;;;;11.27;7.85;;;17.70;99.90;;;18.41;70.98;98666.72;10305061;28;20235;-70
2023/10/01 17:40:48;;;;;;;11.20;7.30;;;17.50;99.90;;;18.29;70.69;98668.84;10298294;28;20706;-69
2023/10/01 17:46:02;;;;;;;9.10;6.53;;;17.30;99.90;;;18.11;71.65;98671.53;10305624;28;20231;-70
2023/10/01 17:51:05;;;;;;;10.27;7.72;;;17.10;99.90;;;17.97;72.77;98665.84;10304449;28;20429;-71
2023/10/01 17:56:20;;;;;;;11.35;7.50;;;17.00;99.90;;;17.74;74.05;98674.28;10305454;28;20238;-71
2023/10/01 18:01:25;;;;;;;10.35;7.53;;;16.80;99.90;;;17.69;74.23;98679.28;10313280;28;20258;-70
2023/10/01 18:06:30;;;;;;;11.65;7.93;;;16.70;99.90;;;17.60;75.32;98683.16;10313647;28;20227;-71
2023/10/01 18:11:36;;;;;;;10.65;7.88;;;16.60;99.90;;;17.46;74.96;98675.72;10311621;28;20619;-70
2023/10/01 18:16:39;;;;;;;11.73;7.88;;;16.50;99.90;;;17.41;73.91;98682.38;10309493;28;20230;-70
2023/10/01 18:21:42;;;;;;;10.40;6.75;;;16.50;99.90;;;17.39;73.18;98673.66;10305363;28;20949;-70
2023/10/01 18:26:48;;;;;;;12.43;8.00;;;16.40;99.90;;;17.08;74.50;98677.53;10314075;28;20617;-70
2023/10/01 18:31:51;;;;;;;10.55;7.22;;;16.10;99.90;;;17.08;74.81;98680.09;10311059;28;20227;-70
2023/10/01 18:36:58;;;;;;;12.48;7.38;;;16.20;99.90;;;16.94;75.98;98678.59;10314477;28;20238;-70
2023/10/01 18:42:04;;;;;;;12.02;8.32;;;16.10;99.90;;;16.88;76.32;98681.78;10312335;28;20592;-69
2023/10/01 18:47:08;;;;;;;11.98;8.57;;;16.00;99.90;;;16.82;76.41;98686.66;10311683;28;20734;-69
2023/10/01 18:52:18;;;;;;;10.88;7.63;;;15.90;99.90;;;16.74;76.80;98692.25;10310152;28;20225;-70
2023/10/01 18:57:23;;;;;;;9.95;7.80;;;15.80;99.90;;;16.60;77.65;98697.66;10311728;28;20345;-69
2023/10/01 19:02:26;;;;;;;12.63;7.35;;;15.70;99.90;;;16.37;79.08;98695.69;10309514;28;20242;-70
2023/10/01 19:07:30;;;;;;;10.80;6.90;;;15.50;99.90;;;16.30;79.55;98711.69;10313075;28;20246;-69
2023/10/01 19:12:35;;;;;;;13.15;8.57;;;15.40;99.90;;;16.29;78.98;98707.34;10311538;28;20346;-69
2023/10/01 19:17:38;;;;;;;15.63;12.02;;;15.40;99.90;;;16.30;78.69;98707.41;10313453;28;20809;-68
2023/10/01 19:22:45;;;;;;;14.88;9.65;;;15.40;99.90;;;16.21;79.46;98707.84;10313517;28;20369;-68
2023/10/01 19:27:57;;;;;;;12.57;8.02;;;15.30;99.90;;;16.05;80.34;98700.16;10309761;28;20238;-70
2023/10/01 19:33:00;;;;;;;13.07;7.85;;;15.20;99.90;;;16.03;80.60;98704.38;10311880;28;20247;-69
2023/10/01 19:38:04;;;;;;;14.93;8.75;;;15.20;99.90;;;16.04;80.42;98698.41;10310433;28;20227;-70
2023/10/01 19:43:09;;;;;;;12.75;8.52;;;15.10;99.90;;;15.94;80.26;98701.34;10311627;28;20236;-69
2023/10/01 19:48:14;;;;;;;13.65;7.78;;;15.00;99.90;;;15.72;81.47;98700.28;10310298;28;20618;-70
2023/10/01 19:53:25;;;;;;;11.05;7.57;;;14.80;99.90;;;15.64;81.64;98690.34;10309974;28;20226;-69
2023/10/01 19:58:32;;;;;;;12.77;7.43;;;14.80;99.90;;;15.60;82.11;98698.75;10308891;28;20230;-68
2023/10/01 20:03:35;;;;;;;10.82;7.45;;;14.70;99.90;;;15.52;82.74;98701.81;10314199;28;20234;-68
2023/10/01 20:08:40;;;;;;;12.55;7.97;;;14.60;99.90;;;15.49;82.96;98700.78;10305104;28;21132;-69
2023/10/01 20:13:44;;;;;;;11.68;8.02;;;14.60;99.90;;;15.40;83.89;98700.31;10312639;28;20250;-69
2023/10/01 20:18:54;;;;;;;10.98;7.25;;;14.50;99.90;;;15.37;83.87;98706.19;10309217;28;20231;-69
2023/10/01 20:23:58;;;;;;;13.70;8.18;;;14.50;99.90;;;15.32;84.11;98700.78;10305781;28;20227;-69
2023/10/01 20:29:03;;;;;;;11.50;7.03;;;14.40;99.90;;;15.27;84.25;98699.66;10305435;28;20238;-69
2023/10/01 20:34:07;;;;;;;10.50;7.57;;;14.40;99.90;;;15.15;84.67;98699.00;10306026;28;20234;-70
2023/10/01 20:39:32;;;;;;;13.18;7.70;;;14.30;99.90;;;15.04;84.91;98700.13;10305924;28;20242;-69
2023/10/01 20:44:36;;;;;;;11.73;7.20;;;14.20;99.90;;;14.91;86.40;98702.84;10306752;28;20230;-68
2023/10/01 20:49:43;;;;;;;11.02;7.45;;;14.00;99.90;;;14.88;85.86;98693.31;10308597;28;20231;-69
2023/10/01 20:54:47;;;;;;;9.43;7.57;;;14.00;99.90;;;14.79;86.80;98691.13;10306218;28;20344;-69
2023/10/01 20:59:54;;;;;;;11.93;7.70;;;14.00;99.90;;;14.83;87.10;98695.63;10307029;28;20711;-68
2023/10/01 21:04:57;;;;;;;9.90;7.20;;;14.00;99.90;;;14.81;86.34;98692.06;10309062;28;20247;-69
2023/10/01 21:10:00;;;;;;;12.43;8.48;;;14.00;99.90;;;14.78;86.34;98697.03;10305642;28;20289;-69
2023/10/01 21:15:07;;;;;;;12.48;7.72;;;13.90;99.90;;;14.77;86.44;98689.25;10308853;28;20231;-68
2023/10/01 21:20:13;;;;;;;13.48;8.35;;;13.90;99.90;;;14.70;87.49;98689.72;10308149;28;20722;-69
2023/10/01 21:25:22;;;;;;;11.48;7.85;;;13.90;99.90;;;14.59;87.46;98690.03;10304188;28;20601;-69
2023/10/01 21:30:29;;;;;;;10.60;7.95;;;13.80;99.90;;;14.60;87.50;98696.06;10305213;28;20231;-69
2023/10/01 21:35:32;;;;;;;11.48;7.65;;;13.80;99.90;;;14.60;88.41;98701.22;10306281;28;20245;-70
2023/10/01 21:40:36;;;;;;;11.55;7.90;;;13.80;99.90;;;14.57;87.43;98701.03;10301640;28;20631;-69
2023/10/01 21:45:57;;;;;;;10.68;7.63;;;13.80;99.90;;;14.57;87.66;98688.19;10301868;28;20313;-69
2023/10/01 21:51:11;;;;;;;11.82;8.00;;;13.70;99.90;;;14.53;87.95;98689.66;10306666;28;20223;-69
2023/10/01 21:56:17;;;;;;;13.20;8.25;;;13.70;99.90;;;14.43;88.04;98683.13;10310820;28;20729;-70